Syosyun — JD2406 — position and weather

sailwx.info

Track history (hours):
 
Tides and Currents Weather Stations Pressure Air Temp Water Temp Dewpoint Dewpoint Depression Visibility Wind Speed Wind Dir Waves Ship Positions

Syosyun

Last reported at 2016-Feb-12 08:32 UTC. Time now 2016-Feb-14 03:52 UTC.
Position N 35°11' E 139°44'.

Length 74 m; draft 3.8 m.

Type: Cargo ship. MMSI: 431000201.

Date/timePositionNaut miles runAvg speedWind from/ knotsBaromVisibWave heightAir tempDewpointWater temp
2016-Feb-12 08:32N 35°11' E 139°44'1010.5
2016-Feb-12 07:33N 35°21' E 139°42'1111.1
2016-Feb-12 06:33N 35°30' E 139°49'7 7.1
2016-Feb-12 05:33N 35°37' E 139°48'0 0.0
2016-Feb-12 04:31N 35°37' E 139°48'0 0.0
2016-Feb-12 03:25N 35°37' E 139°48'0 0.0
2016-Feb-12 02:22N 35°37' E 139°48'0 0.0
2016-Feb-12 01:22N 35°37' E 139°48'0 0.0
2016-Feb-12 00:31N 35°38' E 139°48'0 0.0
2016-Feb-11 23:31N 35°38' E 139°48'0 0.0
2016-Feb-11 22:07N 35°38' E 139°48'1 1.2
2016-Feb-11 21:33N 35°37' E 139°48'6 6.3
2016-Feb-11 20:33N 35°33' E 139°54'10 9.6
2016-Feb-11 19:33N 35°25' E 139°47'1010.0
2016-Feb-11 18:33N 35°15' E 139°47'1111.1
2016-Feb-11 17:33N 35°04' E 139°45'  
Track history (hours):
 
Tides and Currents Weather Stations Pressure Air Temp Water Temp Dewpoint Dewpoint Depression Visibility Wind Speed Wind Dir Waves Ship Positions

Syosyun

Last reported at 2016-Feb-12 08:32 UTC. Time now 2016-Feb-14 03:52 UTC.
Position N 35°11' E 139°44'.

Length 74 m; draft 3.8 m.

Type: Cargo ship. MMSI: 431000201.

Date/timePositionNaut miles runAvg speedWind from/ knotsBaromVisibWave heightAir tempDewpointWater temp
2016-Feb-12 08:32N 35°11' E 139°44'1010.5
2016-Feb-12 07:33N 35°21' E 139°42'1111.1
2016-Feb-12 06:33N 35°30' E 139°49'7 7.1
2016-Feb-12 05:33N 35°37' E 139°48'0 0.0
2016-Feb-12 04:31N 35°37' E 139°48'0 0.0
2016-Feb-12 03:25N 35°37' E 139°48'0 0.0
2016-Feb-12 02:22N 35°37' E 139°48'0 0.0
2016-Feb-12 01:22N 35°37' E 139°48'0 0.0
2016-Feb-12 00:31N 35°38' E 139°48'0 0.0
2016-Feb-11 23:31N 35°38' E 139°48'0 0.0
2016-Feb-11 22:07N 35°38' E 139°48'1 1.2
2016-Feb-11 21:33N 35°37' E 139°48'6 6.3
2016-Feb-11 20:33N 35°33' E 139°54'10 9.6
2016-Feb-11 19:33N 35°25' E 139°47'1010.0
2016-Feb-11 18:33N 35°15' E 139°47'1111.1
2016-Feb-11 17:33N 35°04' E 139°45'  

Dump ship's entire track history